Howell, New Jersey
Current Conditions -  °F | °C
As of 2:35 PM on Friday 21 Nov 2014 (Local Time) from KBLM Reporting Station
Clear Clear  
Wind Chill: 27°   Ceiling: Unl
Heat Index: 36°   Visibility: 10mi
Dew Point:   Wind: 13mph
Humidity: 33%   Direction: 300°WNW
Pressure: 30.34"   Gusts: 20mph
Location:  40.17°N, 74.24°W
Report Text: KBLM 211935Z AUTO 30011G17KT 10SM CLR 02/M13 A3034 RMK AO1
Loading
Personal Weather Stations






























Interactive Weather Map New forecast layout! Learn more

10-Day Weather Forecast

Advertisements
Track Severe Weather on mobile